sensor_id;sensor_type;location;lat;lon;timestamp;P1;durP1;ratioP1;P2;durP2;ratioP2
22502;SDS011;11418;48.118;9.992;2022-07-23T00:00:56;10.50;;;8.00;;
22502;SDS011;11418;48.118;9.992;2022-07-23T00:04:56;10.77;;;8.10;;
22502;SDS011;11418;48.118;9.992;2022-07-23T00:08:57;9.25;;;8.20;;
22502;SDS011;11418;48.118;9.992;2022-07-23T00:12:57;11.55;;;8.13;;
22502;SDS011;11418;48.118;9.992;2022-07-23T00:16:58;11.07;;;8.20;;
22502;SDS011;11418;48.118;9.992;2022-07-23T00:20:58;9.85;;;8.27;;
22502;SDS011;11418;48.118;9.992;2022-07-23T00:24:59;12.65;;;8.98;;
22502;SDS011;11418;48.118;9.992;2022-07-23T00:28:59;10.55;;;9.52;;
22502;SDS011;11418;48.118;9.992;2022-07-23T00:33:01;17.48;;;9.82;;
22502;SDS011;11418;48.118;9.992;2022-07-23T00:37:04;17.75;;;11.40;;
22502;SDS011;11418;48.118;9.992;2022-07-23T00:41:04;12.05;;;10.75;;
22502;SDS011;11418;48.118;9.992;2022-07-23T00:45:05;12.25;;;10.35;;
22502;SDS011;11418;48.118;9.992;2022-07-23T00:49:06;12.52;;;11.27;;
22502;SDS011;11418;48.118;9.992;2022-07-23T00:53:08;15.20;;;11.77;;
22502;SDS011;11418;48.118;9.992;2022-07-23T00:57:09;12.60;;;11.30;;
22502;SDS011;11418;48.118;9.992;2022-07-23T01:01:09;16.42;;;11.68;;
22502;SDS011;11418;48.118;9.992;2022-07-23T01:05:11;16.38;;;11.70;;
22502;SDS011;11418;48.118;9.992;2022-07-23T01:09:12;14.70;;;11.88;;
22502;SDS011;11418;48.118;9.992;2022-07-23T01:13:13;15.10;;;12.00;;
22502;SDS011;11418;48.118;9.992;2022-07-23T01:17:13;18.42;;;11.43;;
22502;SDS011;11418;48.118;9.992;2022-07-23T01:25:17;13.60;;;10.48;;
22502;SDS011;11418;48.118;9.992;2022-07-23T01:29:17;15.07;;;11.40;;
22502;SDS011;11418;48.118;9.992;2022-07-23T01:33:18;14.20;;;10.80;;
22502;SDS011;11418;48.118;9.992;2022-07-23T01:37:19;15.82;;;12.50;;
22502;SDS011;11418;48.118;9.992;2022-07-23T01:41:19;11.88;;;10.60;;
22502;SDS011;11418;48.118;9.992;2022-07-23T01:45:20;15.95;;;12.18;;
22502;SDS011;11418;48.118;9.992;2022-07-23T01:49:21;15.10;;;12.65;;
22502;SDS011;11418;48.118;9.992;2022-07-23T01:53:21;14.75;;;10.63;;
22502;SDS011;11418;48.118;9.992;2022-07-23T01:57:22;11.23;;;9.82;;
22502;SDS011;11418;48.118;9.992;2022-07-23T02:01:22;13.50;;;9.98;;
22502;SDS011;11418;48.118;9.992;2022-07-23T02:05:23;10.70;;;9.57;;
22502;SDS011;11418;48.118;9.992;2022-07-23T02:09:28;12.00;;;10.15;;
22502;SDS011;11418;48.118;9.992;2022-07-23T02:13:29;14.80;;;10.25;;
22502;SDS011;11418;48.118;9.992;2022-07-23T02:17:29;11.75;;;10.43;;
22502;SDS011;11418;48.118;9.992;2022-07-23T02:21:30;10.70;;;8.82;;
22502;SDS011;11418;48.118;9.992;2022-07-23T02:25:30;12.77;;;9.85;;
22502;SDS011;11418;48.118;9.992;2022-07-23T02:29:31;12.93;;;9.65;;
22502;SDS011;11418;48.118;9.992;2022-07-23T02:33:32;9.70;;;8.32;;
22502;SDS011;11418;48.118;9.992;2022-07-23T02:37:33;12.25;;;8.95;;
22502;SDS011;11418;48.118;9.992;2022-07-23T02:41:34;11.05;;;8.80;;
22502;SDS011;11418;48.118;9.992;2022-07-23T02:45:34;9.95;;;8.88;;
22502;SDS011;11418;48.118;9.992;2022-07-23T02:49:35;10.60;;;9.05;;
22502;SDS011;11418;48.118;9.992;2022-07-23T02:53:36;12.25;;;9.60;;
22502;SDS011;11418;48.118;9.992;2022-07-23T02:57:36;11.07;;;9.73;;
22502;SDS011;11418;48.118;9.992;2022-07-23T03:01:37;12.25;;;9.40;;
22502;SDS011;11418;48.118;9.992;2022-07-23T03:05:38;11.43;;;8.40;;
22502;SDS011;11418;48.118;9.992;2022-07-23T03:09:38;9.32;;;8.30;;
22502;SDS011;11418;48.118;9.992;2022-07-23T03:13:39;11.02;;;7.50;;
22502;SDS011;11418;48.118;9.992;2022-07-23T03:17:41;9.85;;;7.32;;
22502;SDS011;11418;48.118;9.992;2022-07-23T03:21:41;8.43;;;7.20;;
22502;SDS011;11418;48.118;9.992;2022-07-23T03:25:42;11.15;;;7.53;;
22502;SDS011;11418;48.118;9.992;2022-07-23T03:29:42;11.00;;;8.13;;
22502;SDS011;11418;48.118;9.992;2022-07-23T03:33:43;12.55;;;8.07;;
22502;SDS011;11418;48.118;9.992;2022-07-23T03:37:43;10.30;;;8.50;;
22502;SDS011;11418;48.118;9.992;2022-07-23T03:41:44;12.20;;;7.68;;
22502;SDS011;11418;48.118;9.992;2022-07-23T03:45:44;8.73;;;7.28;;
22502;SDS011;11418;48.118;9.992;2022-07-23T03:49:45;8.13;;;7.28;;
22502;SDS011;11418;48.118;9.992;2022-07-23T03:53:45;10.05;;;6.95;;
22502;SDS011;11418;48.118;9.992;2022-07-23T03:57:46;9.10;;;7.13;;
22502;SDS011;11418;48.118;9.992;2022-07-23T04:01:46;10.40;;;7.80;;
22502;SDS011;11418;48.118;9.992;2022-07-23T04:05:47;9.38;;;6.95;;
22502;SDS011;11418;48.118;9.992;2022-07-23T04:09:47;9.73;;;7.15;;
22502;SDS011;11418;48.118;9.992;2022-07-23T04:13:48;9.45;;;7.47;;
22502;SDS011;11418;48.118;9.992;2022-07-23T04:17:49;10.68;;;7.80;;
22502;SDS011;11418;48.118;9.992;2022-07-23T04:21:49;9.27;;;7.90;;
22502;SDS011;11418;48.118;9.992;2022-07-23T04:25:50;8.45;;;7.65;;
22502;SDS011;11418;48.118;9.992;2022-07-23T04:29:50;8.38;;;6.80;;
22502;SDS011;11418;48.118;9.992;2022-07-23T04:33:51;10.07;;;7.53;;
22502;SDS011;11418;48.118;9.992;2022-07-23T04:37:51;8.10;;;6.97;;
22502;SDS011;11418;48.118;9.992;2022-07-23T04:41:52;10.07;;;7.55;;
22502;SDS011;11418;48.118;9.992;2022-07-23T04:45:52;9.90;;;7.50;;
22502;SDS011;11418;48.118;9.992;2022-07-23T04:49:53;11.13;;;7.28;;
22502;SDS011;11418;48.118;9.992;2022-07-23T04:53:53;9.40;;;6.95;;
22502;SDS011;11418;48.118;9.992;2022-07-23T04:57:54;9.70;;;7.60;;
22502;SDS011;11418;48.118;9.992;2022-07-23T05:01:55;10.43;;;8.15;;
22502;SDS011;11418;48.118;9.992;2022-07-23T05:05:55;10.10;;;8.15;;
22502;SDS011;11418;48.118;9.992;2022-07-23T05:09:56;11.23;;;8.98;;
22502;SDS011;11418;48.118;9.992;2022-07-23T05:13:56;11.57;;;8.70;;
22502;SDS011;11418;48.118;9.992;2022-07-23T05:17:57;13.63;;;8.77;;
22502;SDS011;11418;48.118;9.992;2022-07-23T05:21:57;11.95;;;10.20;;
22502;SDS011;11418;48.118;9.992;2022-07-23T05:25:58;11.88;;;9.70;;
22502;SDS011;11418;48.118;9.992;2022-07-23T05:29:58;14.13;;;10.30;;
22502;SDS011;11418;48.118;9.992;2022-07-23T05:33:59;14.80;;;11.00;;
22502;SDS011;11418;48.118;9.992;2022-07-23T05:38:00;15.73;;;11.88;;
22502;SDS011;11418;48.118;9.992;2022-07-23T05:42:00;15.18;;;12.07;;
22502;SDS011;11418;48.118;9.992;2022-07-23T05:46:01;13.70;;;11.55;;
22502;SDS011;11418;48.118;9.992;2022-07-23T05:50:03;15.27;;;11.30;;
22502;SDS011;11418;48.118;9.992;2022-07-23T05:54:03;15.35;;;11.50;;
22502;SDS011;11418;48.118;9.992;2022-07-23T05:58:04;12.05;;;10.77;;
22502;SDS011;11418;48.118;9.992;2022-07-23T06:02:05;13.73;;;10.05;;
22502;SDS011;11418;48.118;9.992;2022-07-23T06:06:05;15.32;;;11.93;;
22502;SDS011;11418;48.118;9.992;2022-07-23T06:10:06;12.25;;;10.95;;
22502;SDS011;11418;48.118;9.992;2022-07-23T06:14:07;10.63;;;9.55;;
22502;SDS011;11418;48.118;9.992;2022-07-23T06:18:08;14.75;;;10.80;;
22502;SDS011;11418;48.118;9.992;2022-07-23T06:22:08;11.38;;;10.15;;
22502;SDS011;11418;48.118;9.992;2022-07-23T06:26:09;9.38;;;7.30;;
22502;SDS011;11418;48.118;9.992;2022-07-23T06:30:10;10.20;;;9.10;;
22502;SDS011;11418;48.118;9.992;2022-07-23T06:34:11;13.30;;;10.32;;
22502;SDS011;11418;48.118;9.992;2022-07-23T06:38:11;11.40;;;9.60;;
22502;SDS011;11418;48.118;9.992;2022-07-23T06:42:12;11.75;;;10.35;;
22502;SDS011;11418;48.118;9.992;2022-07-23T06:46:13;12.00;;;9.73;;
22502;SDS011;11418;48.118;9.992;2022-07-23T06:50:14;13.02;;;10.63;;
22502;SDS011;11418;48.118;9.992;2022-07-23T06:54:14;14.90;;;10.32;;
22502;SDS011;11418;48.118;9.992;2022-07-23T06:58:15;12.32;;;10.38;;
22502;SDS011;11418;48.118;9.992;2022-07-23T07:02:15;13.75;;;11.15;;
22502;SDS011;11418;48.118;9.992;2022-07-23T07:06:16;12.27;;;10.07;;
22502;SDS011;11418;48.118;9.992;2022-07-23T07:10:17;11.50;;;9.95;;
22502;SDS011;11418;48.118;9.992;2022-07-23T07:14:18;13.80;;;10.38;;
22502;SDS011;11418;48.118;9.992;2022-07-23T07:18:18;14.05;;;11.50;;
22502;SDS011;11418;48.118;9.992;2022-07-23T07:22:20;13.63;;;11.45;;
22502;SDS011;11418;48.118;9.992;2022-07-23T07:26:20;11.25;;;10.05;;
22502;SDS011;11418;48.118;9.992;2022-07-23T07:30:21;11.05;;;8.95;;
22502;SDS011;11418;48.118;9.992;2022-07-23T07:34:22;10.52;;;8.60;;
22502;SDS011;11418;48.118;9.992;2022-07-23T07:38:22;9.30;;;7.60;;
22502;SDS011;11418;48.118;9.992;2022-07-23T07:42:23;9.07;;;7.85;;
22502;SDS011;11418;48.118;9.992;2022-07-23T07:46:23;8.65;;;7.75;;
22502;SDS011;11418;48.118;9.992;2022-07-23T07:50:27;9.10;;;8.15;;
22502;SDS011;11418;48.118;9.992;2022-07-23T07:54:28;8.98;;;8.07;;
22502;SDS011;11418;48.118;9.992;2022-07-23T07:58:28;10.73;;;8.30;;
22502;SDS011;11418;48.118;9.992;2022-07-23T08:02:29;8.70;;;7.50;;
22502;SDS011;11418;48.118;9.992;2022-07-23T08:06:40;9.10;;;7.75;;
22502;SDS011;11418;48.118;9.992;2022-07-23T08:10:40;8.10;;;7.30;;
22502;SDS011;11418;48.118;9.992;2022-07-23T08:14:41;9.05;;;6.88;;
22502;SDS011;11418;48.118;9.992;2022-07-23T08:18:41;9.23;;;6.75;;
22502;SDS011;11418;48.118;9.992;2022-07-23T08:22:43;8.27;;;6.90;;
22502;SDS011;11418;48.118;9.992;2022-07-23T08:26:57;9.32;;;6.75;;
22502;SDS011;11418;48.118;9.992;2022-07-23T08:30:57;7.10;;;6.40;;
22502;SDS011;11418;48.118;9.992;2022-07-23T08:34:58;8.05;;;7.05;;
22502;SDS011;11418;48.118;9.992;2022-07-23T08:38:59;7.57;;;6.22;;
22502;SDS011;11418;48.118;9.992;2022-07-23T08:43:00;7.32;;;6.20;;
22502;SDS011;11418;48.118;9.992;2022-07-23T08:47:05;6.78;;;6.15;;
22502;SDS011;11418;48.118;9.992;2022-07-23T08:51:06;8.90;;;6.10;;
22502;SDS011;11418;48.118;9.992;2022-07-23T08:55:07;8.18;;;5.90;;
22502;SDS011;11418;48.118;9.992;2022-07-23T08:59:08;6.93;;;6.18;;
22502;SDS011;11418;48.118;9.992;2022-07-23T09:03:17;8.20;;;6.22;;
22502;SDS011;11418;48.118;9.992;2022-07-23T09:07:22;9.80;;;7.22;;
22502;SDS011;11418;48.118;9.992;2022-07-23T09:11:23;8.27;;;7.10;;
22502;SDS011;11418;48.118;9.992;2022-07-23T09:15:23;8.73;;;7.47;;
22502;SDS011;11418;48.118;9.992;2022-07-23T09:19:27;9.57;;;7.38;;
22502;SDS011;11418;48.118;9.992;2022-07-23T09:28:00;9.10;;;7.05;;
22502;SDS011;11418;48.118;9.992;2022-07-23T09:32:07;8.48;;;7.47;;
22502;SDS011;11418;48.118;9.992;2022-07-23T09:36:13;8.05;;;7.22;;
22502;SDS011;11418;48.118;9.992;2022-07-23T09:40:14;9.50;;;7.35;;
22502;SDS011;11418;48.118;9.992;2022-07-23T09:44:18;8.70;;;7.68;;
22502;SDS011;11418;48.118;9.992;2022-07-23T09:48:21;9.27;;;7.95;;
22502;SDS011;11418;48.118;9.992;2022-07-23T09:52:26;9.63;;;8.38;;
22502;SDS011;11418;48.118;9.992;2022-07-23T09:56:31;9.30;;;8.20;;
22502;SDS011;11418;48.118;9.992;2022-07-23T10:00:35;9.98;;;7.93;;
22502;SDS011;11418;48.118;9.992;2022-07-23T10:04:37;9.68;;;7.60;;
22502;SDS011;11418;48.118;9.992;2022-07-23T10:08:41;8.32;;;7.10;;
22502;SDS011;11418;48.118;9.992;2022-07-23T10:12:46;8.73;;;7.50;;
22502;SDS011;11418;48.118;9.992;2022-07-23T10:17:05;9.60;;;8.20;;
22502;SDS011;11418;48.118;9.992;2022-07-23T10:21:07;8.68;;;7.20;;
22502;SDS011;11418;48.118;9.992;2022-07-23T10:25:10;8.30;;;7.15;;
22502;SDS011;11418;48.118;9.992;2022-07-23T10:30:18;8.43;;;6.32;;
22502;SDS011;11418;48.118;9.992;2022-07-23T10:38:47;9.13;;;7.85;;
22502;SDS011;11418;48.118;9.992;2022-07-23T10:42:58;8.70;;;7.80;;
22502;SDS011;11418;48.118;9.992;2022-07-23T10:51:12;7.85;;;7.05;;
22502;SDS011;11418;48.118;9.992;2022-07-23T10:59:27;8.90;;;7.90;;
22502;SDS011;11418;48.118;9.992;2022-07-23T11:03:32;8.70;;;7.43;;
22502;SDS011;11418;48.118;9.992;2022-07-23T11:08:09;10.30;;;8.43;;
22502;SDS011;11418;48.118;9.992;2022-07-23T11:16:23;10.82;;;9.07;;
22502;SDS011;11418;48.118;9.992;2022-07-23T11:20:25;11.52;;;8.63;;
22502;SDS011;11418;48.118;9.992;2022-07-23T11:24:25;10.00;;;8.90;;
22502;SDS011;11418;48.118;9.992;2022-07-23T11:28:26;9.18;;;8.30;;
22502;SDS011;11418;48.118;9.992;2022-07-23T11:32:31;10.23;;;8.65;;
22502;SDS011;11418;48.118;9.992;2022-07-23T11:36:50;10.32;;;8.38;;
22502;SDS011;11418;48.118;9.992;2022-07-23T11:40:52;9.18;;;8.27;;
22502;SDS011;11418;48.118;9.992;2022-07-23T11:44:54;8.95;;;8.05;;
22502;SDS011;11418;48.118;9.992;2022-07-23T11:49:01;9.35;;;8.45;;
22502;SDS011;11418;48.118;9.992;2022-07-23T11:53:03;9.82;;;8.45;;
22502;SDS011;11418;48.118;9.992;2022-07-23T11:57:03;9.13;;;8.18;;
22502;SDS011;11418;48.118;9.992;2022-07-23T12:01:04;9.07;;;8.18;;
22502;SDS011;11418;48.118;9.992;2022-07-23T12:05:05;8.63;;;7.70;;
22502;SDS011;11418;48.118;9.992;2022-07-23T12:09:06;9.13;;;8.23;;
22502;SDS011;11418;48.118;9.992;2022-07-23T12:13:09;10.55;;;8.18;;
22502;SDS011;11418;48.118;9.992;2022-07-23T12:17:11;10.60;;;8.75;;
22502;SDS011;11418;48.118;9.992;2022-07-23T12:21:12;10.15;;;9.15;;
22502;SDS011;11418;48.118;9.992;2022-07-23T12:25:15;10.60;;;8.48;;
22502;SDS011;11418;48.118;9.992;2022-07-23T12:29:19;10.15;;;9.15;;
22502;SDS011;11418;48.118;9.992;2022-07-23T12:33:23;9.38;;;8.35;;
22502;SDS011;11418;48.118;9.992;2022-07-23T12:37:32;10.95;;;9.02;;
22502;SDS011;11418;48.118;9.992;2022-07-23T12:41:50;10.38;;;9.20;;
22502;SDS011;11418;48.118;9.992;2022-07-23T12:45:53;10.70;;;8.73;;
22502;SDS011;11418;48.118;9.992;2022-07-23T12:49:56;9.85;;;8.25;;
22502;SDS011;11418;48.118;9.992;2022-07-23T12:53:57;10.77;;;8.90;;
22502;SDS011;11418;48.118;9.992;2022-07-23T13:02:12;9.95;;;8.93;;
22502;SDS011;11418;48.118;9.992;2022-07-23T13:06:13;9.38;;;8.48;;
22502;SDS011;11418;48.118;9.992;2022-07-23T13:10:14;9.73;;;8.77;;
22502;SDS011;11418;48.118;9.992;2022-07-23T13:14:15;9.90;;;8.93;;
22502;SDS011;11418;48.118;9.992;2022-07-23T13:18:16;9.68;;;8.68;;
22502;SDS011;11418;48.118;9.992;2022-07-23T13:22:18;9.52;;;8.50;;
22502;SDS011;11418;48.118;9.992;2022-07-23T13:26:18;9.73;;;8.73;;
22502;SDS011;11418;48.118;9.992;2022-07-23T13:30:19;9.63;;;8.63;;
22502;SDS011;11418;48.118;9.992;2022-07-23T13:34:19;9.82;;;8.77;;
22502;SDS011;11418;48.118;9.992;2022-07-23T13:38:20;12.20;;;8.75;;
22502;SDS011;11418;48.118;9.992;2022-07-23T13:42:21;10.88;;;9.77;;
22502;SDS011;11418;48.118;9.992;2022-07-23T13:46:22;9.40;;;8.60;;
22502;SDS011;11418;48.118;9.992;2022-07-23T13:50:22;9.82;;;8.60;;
22502;SDS011;11418;48.118;9.992;2022-07-23T13:54:23;9.48;;;8.48;;
22502;SDS011;11418;48.118;9.992;2022-07-23T13:58:24;9.30;;;8.50;;
22502;SDS011;11418;48.118;9.992;2022-07-23T14:02:24;9.45;;;8.55;;
22502;SDS011;11418;48.118;9.992;2022-07-23T14:06:25;8.70;;;7.90;;
22502;SDS011;11418;48.118;9.992;2022-07-23T14:10:26;9.85;;;8.73;;
22502;SDS011;11418;48.118;9.992;2022-07-23T14:14:26;9.55;;;8.48;;
22502;SDS011;11418;48.118;9.992;2022-07-23T14:18:27;10.02;;;8.98;;
22502;SDS011;11418;48.118;9.992;2022-07-23T14:22:27;11.05;;;8.63;;
22502;SDS011;11418;48.118;9.992;2022-07-23T14:26:28;10.07;;;8.70;;
22502;SDS011;11418;48.118;9.992;2022-07-23T14:30:29;10.48;;;8.07;;
22502;SDS011;11418;48.118;9.992;2022-07-23T14:34:30;10.32;;;8.90;;
22502;SDS011;11418;48.118;9.992;2022-07-23T14:38:30;10.23;;;9.23;;
22502;SDS011;11418;48.118;9.992;2022-07-23T14:42:31;11.35;;;10.15;;
22502;SDS011;11418;48.118;9.992;2022-07-23T14:46:31;11.02;;;10.02;;
22502;SDS011;11418;48.118;9.992;2022-07-23T14:50:32;9.60;;;8.63;;
22502;SDS011;11418;48.118;9.992;2022-07-23T14:54:33;9.68;;;8.50;;
22502;SDS011;11418;48.118;9.992;2022-07-23T14:58:33;9.02;;;7.15;;
22502;SDS011;11418;48.118;9.992;2022-07-23T15:02:34;10.05;;;9.05;;
22502;SDS011;11418;48.118;9.992;2022-07-23T15:06:34;10.38;;;8.68;;
22502;SDS011;11418;48.118;9.992;2022-07-23T15:10:35;12.73;;;8.60;;
22502;SDS011;11418;48.118;9.992;2022-07-23T15:14:36;9.85;;;8.85;;
22502;SDS011;11418;48.118;9.992;2022-07-23T15:18:36;10.93;;;9.27;;
22502;SDS011;11418;48.118;9.992;2022-07-23T15:22:37;11.40;;;9.20;;
22502;SDS011;11418;48.118;9.992;2022-07-23T15:26:38;9.82;;;8.93;;
22502;SDS011;11418;48.118;9.992;2022-07-23T15:30:38;10.30;;;9.20;;
22502;SDS011;11418;48.118;9.992;2022-07-23T15:34:39;9.98;;;8.98;;
22502;SDS011;11418;48.118;9.992;2022-07-23T15:38:40;10.45;;;9.35;;
22502;SDS011;11418;48.118;9.992;2022-07-23T15:42:40;10.00;;;8.95;;
22502;SDS011;11418;48.118;9.992;2022-07-23T15:46:41;10.52;;;9.50;;
22502;SDS011;11418;48.118;9.992;2022-07-23T15:50:42;10.10;;;9.15;;
22502;SDS011;11418;48.118;9.992;2022-07-23T15:54:42;10.65;;;9.70;;
22502;SDS011;11418;48.118;9.992;2022-07-23T15:58:43;10.18;;;9.18;;
22502;SDS011;11418;48.118;9.992;2022-07-23T16:02:44;10.45;;;9.48;;
22502;SDS011;11418;48.118;9.992;2022-07-23T16:06:44;11.75;;;10.55;;
22502;SDS011;11418;48.118;9.992;2022-07-23T16:10:45;10.90;;;9.45;;
22502;SDS011;11418;48.118;9.992;2022-07-23T16:14:45;11.32;;;10.13;;
22502;SDS011;11418;48.118;9.992;2022-07-23T16:18:46;13.50;;;10.50;;
22502;SDS011;11418;48.118;9.992;2022-07-23T16:22:50;11.20;;;10.05;;
22502;SDS011;11418;48.118;9.992;2022-07-23T16:26:51;11.65;;;10.48;;
22502;SDS011;11418;48.118;9.992;2022-07-23T16:30:51;11.10;;;10.05;;
22502;SDS011;11418;48.118;9.992;2022-07-23T16:34:52;10.93;;;9.68;;
22502;SDS011;11418;48.118;9.992;2022-07-23T16:38:52;11.77;;;10.25;;
22502;SDS011;11418;48.118;9.992;2022-07-23T16:42:56;12.13;;;10.27;;
22502;SDS011;11418;48.118;9.992;2022-07-23T16:46:57;12.23;;;10.88;;
22502;SDS011;11418;48.118;9.992;2022-07-23T16:50:58;13.13;;;11.73;;
22502;SDS011;11418;48.118;9.992;2022-07-23T16:54:58;13.25;;;10.95;;
22502;SDS011;11418;48.118;9.992;2022-07-23T16:58:59;13.10;;;10.05;;
22502;SDS011;11418;48.118;9.992;2022-07-23T17:02:59;8.07;;;7.28;;
22502;SDS011;11418;48.118;9.992;2022-07-23T17:07:00;8.80;;;7.85;;
22502;SDS011;11418;48.118;9.992;2022-07-23T17:11:02;9.02;;;7.80;;
22502;SDS011;11418;48.118;9.992;2022-07-23T17:15:04;8.35;;;7.53;;
22502;SDS011;11418;48.118;9.992;2022-07-23T17:19:05;8.82;;;7.93;;
22502;SDS011;11418;48.118;9.992;2022-07-23T17:23:05;6.80;;;6.10;;
22502;SDS011;11418;48.118;9.992;2022-07-23T17:27:06;6.05;;;5.10;;
22502;SDS011;11418;48.118;9.992;2022-07-23T17:31:07;9.65;;;6.50;;
22502;SDS011;11418;48.118;9.992;2022-07-23T17:35:08;12.52;;;9.63;;
22502;SDS011;11418;48.118;9.992;2022-07-23T17:39:09;14.45;;;11.45;;
22502;SDS011;11418;48.118;9.992;2022-07-23T17:43:09;14.18;;;9.80;;
22502;SDS011;11418;48.118;9.992;2022-07-23T17:47:10;13.50;;;10.90;;
22502;SDS011;11418;48.118;9.992;2022-07-23T17:51:10;13.00;;;11.70;;
22502;SDS011;11418;48.118;9.992;2022-07-23T17:55:11;14.73;;;12.27;;
22502;SDS011;11418;48.118;9.992;2022-07-23T17:59:12;11.38;;;10.18;;
22502;SDS011;11418;48.118;9.992;2022-07-23T18:03:13;13.75;;;10.65;;
22502;SDS011;11418;48.118;9.992;2022-07-23T18:07:14;12.85;;;10.13;;
22502;SDS011;11418;48.118;9.992;2022-07-23T18:11:14;12.90;;;10.55;;
22502;SDS011;11418;48.118;9.992;2022-07-23T18:15:15;9.25;;;8.20;;
22502;SDS011;11418;48.118;9.992;2022-07-23T18:19:15;9.23;;;7.35;;
22502;SDS011;11418;48.118;9.992;2022-07-23T18:23:16;8.60;;;7.70;;
22502;SDS011;11418;48.118;9.992;2022-07-23T18:27:17;7.93;;;7.13;;
22502;SDS011;11418;48.118;9.992;2022-07-23T18:31:18;7.20;;;5.93;;
22502;SDS011;11418;48.118;9.992;2022-07-23T18:35:18;6.85;;;5.78;;
22502;SDS011;11418;48.118;9.992;2022-07-23T18:39:19;5.90;;;5.28;;
22502;SDS011;11418;48.118;9.992;2022-07-23T18:43:19;5.75;;;5.13;;
22502;SDS011;11418;48.118;9.992;2022-07-23T18:47:20;5.60;;;4.85;;
22502;SDS011;11418;48.118;9.992;2022-07-23T18:51:20;7.32;;;5.45;;
22502;SDS011;11418;48.118;9.992;2022-07-23T18:55:21;7.82;;;6.00;;
22502;SDS011;11418;48.118;9.992;2022-07-23T18:59:21;11.05;;;6.60;;
22502;SDS011;11418;48.118;9.992;2022-07-23T19:03:22;8.15;;;7.03;;
22502;SDS011;11418;48.118;9.992;2022-07-23T19:07:23;12.73;;;9.65;;
22502;SDS011;11418;48.118;9.992;2022-07-23T19:11:23;12.30;;;9.90;;
22502;SDS011;11418;48.118;9.992;2022-07-23T19:15:24;11.82;;;9.52;;
22502;SDS011;11418;48.118;9.992;2022-07-23T19:19:25;12.80;;;9.25;;
22502;SDS011;11418;48.118;9.992;2022-07-23T19:23:26;10.02;;;9.00;;
22502;SDS011;11418;48.118;9.992;2022-07-23T19:27:26;11.43;;;8.98;;
22502;SDS011;11418;48.118;9.992;2022-07-23T19:31:27;11.10;;;8.85;;
22502;SDS011;11418;48.118;9.992;2022-07-23T19:35:28;10.13;;;8.15;;
22502;SDS011;11418;48.118;9.992;2022-07-23T19:39:29;10.48;;;8.63;;
22502;SDS011;11418;48.118;9.992;2022-07-23T19:43:29;12.25;;;9.65;;
22502;SDS011;11418;48.118;9.992;2022-07-23T19:47:30;11.13;;;9.32;;
22502;SDS011;11418;48.118;9.992;2022-07-23T19:51:30;11.90;;;9.07;;
22502;SDS011;11418;48.118;9.992;2022-07-23T19:55:31;12.50;;;9.13;;
22502;SDS011;11418;48.118;9.992;2022-07-23T19:59:32;12.18;;;9.48;;
22502;SDS011;11418;48.118;9.992;2022-07-23T20:03:33;11.32;;;9.80;;
22502;SDS011;11418;48.118;9.992;2022-07-23T20:07:34;12.15;;;9.88;;
22502;SDS011;11418;48.118;9.992;2022-07-23T20:11:35;13.15;;;9.60;;
22502;SDS011;11418;48.118;9.992;2022-07-23T20:15:35;10.57;;;8.88;;
22502;SDS011;11418;48.118;9.992;2022-07-23T20:19:36;10.85;;;9.02;;
22502;SDS011;11418;48.118;9.992;2022-07-23T20:23:36;10.27;;;9.00;;
22502;SDS011;11418;48.118;9.992;2022-07-23T20:27:37;13.18;;;10.20;;
22502;SDS011;11418;48.118;9.992;2022-07-23T20:31:38;16.52;;;11.07;;
22502;SDS011;11418;48.118;9.992;2022-07-23T20:35:39;12.93;;;10.10;;
22502;SDS011;11418;48.118;9.992;2022-07-23T20:39:39;15.38;;;10.02;;
22502;SDS011;11418;48.118;9.992;2022-07-23T20:43:40;12.50;;;10.00;;
22502;SDS011;11418;48.118;9.992;2022-07-23T20:47:42;15.40;;;10.05;;
22502;SDS011;11418;48.118;9.992;2022-07-23T20:51:43;11.95;;;9.25;;
22502;SDS011;11418;48.118;9.992;2022-07-23T20:55:44;10.82;;;9.13;;
22502;SDS011;11418;48.118;9.992;2022-07-23T20:59:45;14.02;;;9.38;;
22502;SDS011;11418;48.118;9.992;2022-07-23T21:03:46;13.02;;;11.00;;
22502;SDS011;11418;48.118;9.992;2022-07-23T21:07:46;12.02;;;10.07;;
22502;SDS011;11418;48.118;9.992;2022-07-23T21:11:47;13.90;;;11.05;;
22502;SDS011;11418;48.118;9.992;2022-07-23T21:15:47;15.23;;;11.60;;
22502;SDS011;11418;48.118;9.992;2022-07-23T21:19:48;23.98;;;10.23;;
22502;SDS011;11418;48.118;9.992;2022-07-23T21:23:49;19.88;;;11.10;;
22502;SDS011;11418;48.118;9.992;2022-07-23T21:27:51;20.92;;;12.45;;
22502;SDS011;11418;48.118;9.992;2022-07-23T21:31:52;15.90;;;12.48;;
22502;SDS011;11418;48.118;9.992;2022-07-23T21:35:54;28.90;;;10.60;;
22502;SDS011;11418;48.118;9.992;2022-07-23T21:39:54;19.02;;;11.05;;
22502;SDS011;11418;48.118;9.992;2022-07-23T21:43:55;15.57;;;11.13;;
22502;SDS011;11418;48.118;9.992;2022-07-23T21:47:57;17.25;;;11.88;;
22502;SDS011;11418;48.118;9.992;2022-07-23T21:51:57;18.38;;;10.77;;
22502;SDS011;11418;48.118;9.992;2022-07-23T21:55:58;15.57;;;11.95;;
22502;SDS011;11418;48.118;9.992;2022-07-23T21:59:58;18.73;;;12.82;;
22502;SDS011;11418;48.118;9.992;2022-07-23T22:03:59;15.95;;;12.20;;
22502;SDS011;11418;48.118;9.992;2022-07-23T22:07:59;18.15;;;12.40;;
22502;SDS011;11418;48.118;9.992;2022-07-23T22:12:00;18.38;;;12.65;;
22502;SDS011;11418;48.118;9.992;2022-07-23T22:16:01;26.85;;;11.57;;
22502;SDS011;11418;48.118;9.992;2022-07-23T22:20:02;14.88;;;11.25;;
22502;SDS011;11418;48.118;9.992;2022-07-23T22:24:04;15.50;;;12.45;;
22502;SDS011;11418;48.118;9.992;2022-07-23T22:28:05;17.27;;;12.68;;
22502;SDS011;11418;48.118;9.992;2022-07-23T22:32:05;17.13;;;12.55;;
22502;SDS011;11418;48.118;9.992;2022-07-23T22:36:06;23.90;;;12.75;;
22502;SDS011;11418;48.118;9.992;2022-07-23T22:40:07;18.00;;;14.05;;
22502;SDS011;11418;48.118;9.992;2022-07-23T22:44:09;23.73;;;15.77;;
22502;SDS011;11418;48.118;9.992;2022-07-23T22:48:09;31.80;;;13.65;;
22502;SDS011;11418;48.118;9.992;2022-07-23T22:52:10;25.27;;;14.52;;
22502;SDS011;11418;48.118;9.992;2022-07-23T22:56:10;32.53;;;13.65;;
22502;SDS011;11418;48.118;9.992;2022-07-23T23:00:11;18.65;;;13.30;;
22502;SDS011;11418;48.118;9.992;2022-07-23T23:04:12;31.70;;;13.10;;
22502;SDS011;11418;48.118;9.992;2022-07-23T23:08:13;16.13;;;13.15;;
22502;SDS011;11418;48.118;9.992;2022-07-23T23:12:13;17.02;;;12.52;;
22502;SDS011;11418;48.118;9.992;2022-07-23T23:16:14;25.45;;;14.52;;
22502;SDS011;11418;48.118;9.992;2022-07-23T23:20:15;24.17;;;13.50;;
22502;SDS011;11418;48.118;9.992;2022-07-23T23:24:15;24.48;;;13.75;;
22502;SDS011;11418;48.118;9.992;2022-07-23T23:28:16;18.80;;;14.10;;
22502;SDS011;11418;48.118;9.992;2022-07-23T23:32:16;24.15;;;12.20;;
22502;SDS011;11418;48.118;9.992;2022-07-23T23:36:17;19.98;;;10.57;;
22502;SDS011;11418;48.118;9.992;2022-07-23T23:40:18;29.05;;;13.38;;
22502;SDS011;11418;48.118;9.992;2022-07-23T23:44:18;24.67;;;13.10;;
22502;SDS011;11418;48.118;9.992;2022-07-23T23:48:21;18.70;;;12.30;;
22502;SDS011;11418;48.118;9.992;2022-07-23T23:52:21;27.10;;;13.48;;
22502;SDS011;11418;48.118;9.992;2022-07-23T23:56:22;25.48;;;15.25;;
